Historique des mesures à Cassis (13260), France
Quotidien Résumé Janvier 18, 2017 Unités:  Métrique    US   Métrique/US
« Précédent (Jour)
Suivant (Jour) »
Quotidien Hebdomadaire Mensuel Annuel Période au choix
  Maximum: Minimum: Moyenne:
Température: TemperatureC °C 3.3 °C 5.8 °C
Point de rosée: DewpointC °C -8.9 °C -6.8 °C
Humidité: Humidity % 30 % 37 %
Vitesse du vent: 0 km/h 0 km/h 2.6 km/h
Rafales: 0 km/h - -
Vent:- - SE
Pression: PressurehPa hPa 1014.1 hPa -
Précipitations: 0.0 mm    
Historical Graphs
 
 
Mesures pour : Janvier 18, 2017
Heure Temperature Point de rosée Pression Vent Vitesse du vent Rafales Humidité Pluie (par heure) Conditions
TemperatureC °C DewpointC °C PressurehPa hPa Calm     Humidity % HourlyPrecipMM mm SoftwareType W/m2
00:11 4.2 °C -7.7 °C 1014.1 hPa West 6.9 km/h 17.9 km/h 42 % 0.0 mm open2300-1.11 W/m2
01:10 4.2 °C -7.9 °C 1014.1 hPa Calm   4.7 km/h 41 % 0.0 mm open2300-1.11 W/m2
02:11 4.1 °C -8.3 °C 1014.1 hPa North 5.1 km/h 8 km/h 40 % 0.0 mm open2300-1.11 W/m2
03:10 4.2 °C -8.6 °C 1014.1 hPa NE 8 km/h 14.5 km/h 39 % 0.0 mm open2300-1.11 W/m2
04:11 4.1 °C -8.7 °C 1014.1 hPa Calm   5.1 km/h 39 % 0.0 mm open2300-1.11 W/m2
05:10 3.3 °C -8.4 °C 1014.1 hPa Calm   4.2 km/h 42 % 0.0 mm open2300-1.11 W/m2
06:11 3.6 °C -8.4 °C 1014.1 hPa Calm     41 % 0.0 mm open2300-1.11 W/m2
07:10 3.5 °C -8.8 °C 1014.8 hPa Calm     40 % 0.0 mm open2300-1.11 W/m2
08:11 3.8 °C -8.9 °C 1015.1 hPa Calm     39 % 0.0 mm open2300-1.11 W/m2
09:10 4.6 °C -8.6 °C 1015.5 hPa North 4.7 km/h 4.7 km/h 38 % 0.0 mm open2300-1.11 W/m2
10:11 5.6 °C -8.1 °C 1016.1 hPa Calm     37 % 0.0 mm open2300-1.11 W/m2
11:10 7.3 °C -7.3 °C 1016.5 hPa NNE 9.8 km/h 9.8 km/h 35 % 0.0 mm open2300-1.11 W/m2
12:11 8.9 °C -6.2 °C 1016.5 hPa Calm     34 % 0.0 mm open2300-1.11 W/m2
13:10 10.1 °C -5.9 °C 1015.8 hPa Calm   7.6 km/h 32 % 0.0 mm open2300-1.11 W/m2
14:11 10.5 °C -6.3 °C 1015.8 hPa Calm     30 % 0.0 mm open2300-1.11 W/m2
15:10 10.2 °C -5.5 °C 1016.1 hPa NW 4.2 km/h 25.4 km/h 33 % 0.0 mm open2300-1.11 W/m2
16:11 8.9 °C -4.7 °C 1016.1 hPa NW 25.4 km/h 26.7 km/h 38 % 0.0 mm open2300-1.11 W/m2
17:10 7.2 °C -4.9 °C 1016.5 hPa Calm     42 % 0.0 mm open2300-1.11 W/m2
18:11 6.4 °C -5.6 °C 1016.8 hPa Calm   8.9 km/h 42 % 0.0 mm open2300-1.11 W/m2
19:10 6.2 °C -6.1 °C 1017.2 hPa Calm     41 % 0.0 mm open2300-1.11 W/m2
20:11 6.2 °C -6.4 °C 1017.8 hPa Calm     40 % 0.0 mm open2300-1.11 W/m2
21:10 6.5 °C -6.5 °C 1017.8 hPa Calm     39 % 0.0 mm open2300-1.11 W/m2
22:11 5.9 °C -6.7 °C 1017.8 hPa Calm     40 % 0.0 mm open2300-1.11 W/m2
23:10 6.3 °C -6.7 °C 1018.5 hPa Calm     39 % 0.0 mm open2300-1.11 W/m2
Observations météo à CASSIS
WU-History script by Weather Underground - 1 mb